Notice: Undefined index: language in D:\xampp\htdocs\vam\index.php on line 25
Open Air Virtual

 METAR AND TAF INFORMATION
METAR FOR ESOK
ADDS - METARS form results

(1330 UTC 04 June 2020)
Data provider http://aviationweather.gov/metar/data/
 
METAR text: ESOK 041320Z 12012KT CAVOK 18/05 Q1001
Conditions at: ESOK (KARLSTAD NORTH , SE) observed 1320 UTC 04 June 2020
Temperature: 18.0°C (64°F)
Dewpoint: 5.0°C (41°F) [RH = 42%]
Pressure (altimeter): 29.56 inches Hg (1001.0 mb)
Winds: from the ESE (120 degrees) at 14 MPH (12 knots; 6.2 m/s)
Visibility: 6 or more miles (10+ km)
Ceiling: ceiling and visibility are OK
Clouds: unknown
Weather: no significant weather observed at this time

METAR text: ESOK 041250Z 14011KT CAVOK 18/05 Q1001
Conditions at: ESOK (KARLSTAD NORTH , SE) observed 1250 UTC 04 June 2020
Temperature: 18.0°C (64°F)
Dewpoint: 5.0°C (41°F) [RH = 42%]
Pressure (altimeter): 29.56 inches Hg (1001.0 mb)
Winds: from the SE (140 degrees) at 13 MPH (11 knots; 5.7 m/s)
Visibility: 6 or more miles (10+ km)
Ceiling: ceiling and visibility are OK
Clouds: unknown
Weather: no significant weather observed at this time

Forecast for: ESOK (KARLSTAD NORTH , SE)
Text: TAF ESOK 041130Z 0412/0415 14010KT CAVOK
Forecast period: 1200 to 1500 UTC 04 June 2020
Forecast type: FROM: standard forecast or significant change
Winds: from the SE (140 degrees) at 12 MPH (10 knots; 5.1 m/s)
Visibility: 6 or more miles 10+ km)
Ceiling: unknown
Clouds: missing
Weather: NSW  (no significant weather)

 AIRPORT MAP

 RUNWAY INFORMATION
Runway 03 Runway length 8255 ft Runway width 148 ft
Runway elevation 332 ft Runway displaced threshold 0 ft Runway heading 26
Runway 21 Runway length 8255 ft Runway width 148 ft
Runway elevation 352 ft Runway displaced threshold 0 ft Runway heading 206
Runway 03L Runway length 1840 ft Runway width 170 ft
Runway elevation 0 ft Runway displaced threshold 0 ft Runway heading 26
Runway 21R Runway length 1840 ft Runway width 170 ft
Runway elevation 0 ft Runway displaced threshold 0 ft Runway heading 206

 AIRPORT FREQUENCIES
Type TWR Name TWR Frequency 119.45 MHZ

 AIRPORT NEAR NAVIGATION AIDS
Type VOR-DME Name Karlstad Frequency 117800 KHZ



Powered by Virtual Airlines Manager [v2.6.2]